| time (UTC) | temp F | wind direction | speed MPH | gust MPH | rain 1hr in | rain 24hr in | rain mn in | humidity % | barometer mb |
| 20260505124557 | 64 | 92 | 0.0 | 5.0 | 0.00 | 0.02 | 0.02 | 62 | 1004.9 |
| 20260505123054 | 61 | 128 | 0.0 | 2.0 | 0.00 | 0.02 | 0.02 | 69 | 1005.0 |
| 20260505121550 | 59 | 155 | 0.0 | 2.0 | 0.02 | 0.02 | 0.02 | 75 | 1005.1 |
| 20260505120055 | 57 | 312 | 0.0 | 0.0 | 0.02 | 0.02 | 0.02 | 79 | 1005.1 |
| 20260505114547 | 57 | 61 | 0.0 | 0.0 | 0.02 | 0.02 | 0.02 | 79 | 1005.2 |
| 20260505113052 | 57 | 61 | 0.0 | 2.0 | 0.02 | 0.02 | 0.02 | 79 | 1005.1 |
| 20260505111548 | 57 | 249 | 0.0 | 3.0 | 0.00 | 0.00 | 0.00 | 74 | 1005.1 |
| 20260505101544 | 58 | 188 | 0.0 | 3.0 | 0.00 | 0.00 | 0.00 | 65 | 1005.0 |
| 20260505100040 | 57 | 311 | 0.0 | 2.0 | 0.00 | 0.00 | 0.00 | 67 | 1004.6 |
| 20260505094540 | 56 | 37 | 0.0 | 3.0 | 0.00 | 0.00 | 0.00 | 68 | 1004.3 |
| 20260505093050 | 54 | 44 | 0.0 | 2.0 | 0.00 | 0.00 | 0.00 | 73 | 1004.1 |
| 20260505091539 | 52 | 26 | 0.0 | 1.0 | 0.00 | 0.00 | 0.00 | 77 | 1004.2 |
| 20260505090037 | 52 | 26 | 0.0 | 0.0 | 0.00 | 0.00 | 0.00 | 75 | 1004.2 |
| 20260505084536 | 53 | 26 | 0.0 | 2.0 | 0.00 | 0.00 | 0.00 | 75 | 1004.3 |
| 20260505083040 | 53 | 26 | 0.0 | 0.0 | 0.00 | 0.00 | 0.00 | 73 | 1004.2 |
| 20260505081535 | 54 | 26 | 0.0 | 0.0 | 0.00 | 0.00 | 0.00 | 72 | 1004.2 |
| 20260505080035 | 55 | 26 | 0.0 | 0.0 | 0.00 | 0.00 | 0.00 | 70 | 1004.1 |
| 20260505074534 | 55 | 26 | 0.0 | 0.0 | 0.00 | 0.00 | 0.00 | 68 | 1004.3 |
| 20260505073034 | 57 | 26 | 0.0 | 0.0 | 0.00 | 0.00 | 0.00 | 66 | 1004.2 |
| 20260505071534 | 57 | 26 | 0.0 | 2.0 | 0.00 | 0.00 | 0.00 | 65 | 1004.2 |
| 20260505070036 | 58 | 40 | 0.0 | 3.0 | 0.00 | 0.00 | 0.00 | 63 | 1004.1 |
| 20260505064530 | 57 | 223 | 0.0 | 3.0 | 0.00 | 0.00 | 0.00 | 64 | 1004.1 |
| 20260505063029 | 55 | 64 | 0.0 | 3.0 | 0.00 | 0.00 | 0.00 | 68 | 1004.2 |
| 20260505061538 | 54 | 189 | 0.0 | 3.0 | 0.00 | 0.00 | 0.00 | 69 | 1004.5 |
| 20260505060027 | 53 | 136 | 0.0 | 0.0 | 0.00 | 0.00 | 0.00 | 70 | 1004.6 |
| 20260505054540 | 53 | 136 | 0.0 | 0.0 | 0.00 | 0.00 | 0.00 | 69 | 1004.6 |
| 20260505053027 | 53 | 136 | 0.0 | 0.0 | 0.00 | 0.00 | 0.00 | 69 | 1004.6 |
| 20260505051524 | 54 | 136 | 0.0 | 0.0 | 0.00 | 0.00 | 0.00 | 67 | 1004.6 |
| 20260505041517 | 56 | 136 | 0.0 | 0.0 | 0.00 | 0.00 | 0.00 | 61 | 1004.9 |
| 20260505040033 | 56 | 136 | 0.0 | 1.0 | 0.00 | 0.00 | 0.00 | 60 | 1004.9 |
| 20260505034513 | 56 | 136 | 0.0 | 2.0 | 0.00 | 0.00 | 0.00 | 60 | 1005.0 |
| 20260505033015 | 56 | 69 | 0.0 | 0.0 | 0.00 | 0.00 | 0.00 | 60 | 1005.0 |
| 20260505031514 | 57 | 69 | 0.0 | 0.0 | 0.00 | 0.00 | 0.00 | 59 | 1005.0 |
| 20260505030016 | 57 | 69 | 0.0 | 0.0 | 0.00 | 0.00 | 0.00 | 59 | 1005.1 |
| 20260505024512 | 57 | 69 | 0.0 | 0.0 | 0.00 | 0.00 | 0.00 | 56 | 1005.1 |
| 20260505023013 | 58 | 69 | 0.0 | 1.0 | 0.00 | 0.00 | 0.00 | 54 | 1005.1 |
| 20260505021512 | 58 | 69 | 0.0 | 1.0 | 0.00 | 0.00 | 0.00 | 54 | 1005.3 |
| 20260505020013 | 57 | 69 | 0.0 | 1.0 | 0.00 | 0.00 | 0.00 | 52 | 1005.2 |
| 20260505014514 | 58 | 69 | 0.0 | 1.0 | 0.00 | 0.00 | 0.00 | 53 | 1005.1 |
| 20260505013011 | 58 | 69 | 0.0 | 0.0 | 0.00 | 0.00 | 0.00 | 50 | 1005.1 |
| 20260505011511 | 59 | 69 | 0.0 | 0.0 | 0.00 | 0.00 | 0.00 | 48 | 1004.7 |
| 20260505010011 | 60 | 69 | 0.0 | 0.0 | 0.00 | 0.00 | 0.00 | 46 | 1004.6 |
| 20260505004516 | 61 | 69 | 0.0 | 1.0 | 0.00 | 0.00 | 0.00 | 46 | 1004.4 |
| 20260505003011 | 62 | 69 | 0.0 | 1.0 | 0.00 | 0.00 | 0.00 | 44 | 1004.4 |
| 20260505001510 | 63 | 69 | 0.0 | 1.0 | 0.00 | 0.00 | 0.00 | 43 | 1004.0 |
| 20260505000009 | 65 | 69 | 0.0 | 1.0 | 0.00 | 0.00 | 0.00 | 40 | 1003.8 |
| 20260504234511 | 66 | 69 | 0.0 | 5.0 | 0.00 | 0.00 | 0.00 | 38 | 1003.5 |
| 20260504233009 | 67 | 54 | 0.0 | 1.0 | 0.00 | 0.00 | 0.00 | 35 | 1003.5 |
| 20260504231509 | 68 | 54 | 0.0 | 3.0 | 0.00 | 0.00 | 0.00 | 35 | 1003.0 |
| 20260504230009 | 68 | 63 | 0.0 | 4.0 | 0.00 | 0.00 | 0.00 | 34 | 1003.0 |
| 20260504224508 | 69 | 65 | 0.0 | 5.0 | 0.00 | 0.00 | 0.00 | 33 | 1003.1 |
| 20260504223010 | 70 | 269 | 0.0 | 4.0 | 0.00 | 0.00 | 0.00 | 32 | 1003.1 |
| 20260504221509 | 70 | 9 | 0.0 | 4.0 | 0.00 | 0.00 | 0.00 | 33 | 1003.2 |
| 20260504220023 | 70 | 50 | 0.0 | 8.0 | 0.00 | 0.00 | 0.00 | 31 | 1003.4 |
| 20260504214510 | 71 | 69 | 2.0 | 7.0 | 0.00 | 0.00 | 0.00 | 30 | 1003.5 |
| 20260504213009 | 71 | 246 | 1.0 | 6.0 | 0.00 | 0.00 | 0.00 | 30 | 1003.6 |
| 20260504211506 | 71 | 342 | 0.0 | 5.0 | 0.00 | 0.00 | 0.00 | 31 | 1003.6 |
| 20260504210006 | 71 | 61 | 1.0 | 7.0 | 0.00 | 0.00 | 0.00 | 33 | 1003.6 |
| 20260504204507 | 71 | 360 | 1.0 | 7.0 | 0.00 | 0.00 | 0.00 | 31 | 1003.6 |
| 20260504203004 | 71 | 30 | 0.0 | 6.0 | 0.00 | 0.00 | 0.00 | 30 | 1003.5 |
| 20260504201504 | 71 | 264 | 1.0 | 7.0 | 0.00 | 0.00 | 0.00 | 28 | 1003.6 |
| 20260504200005 | 70 | 317 | 1.0 | 5.0 | 0.00 | 0.00 | 0.00 | 29 | 1003.7 |
| 20260504194502 | 71 | 9 | 1.0 | 5.0 | 0.00 | 0.00 | 0.00 | 30 | 1004.0 |
| 20260504193002 | 71 | 292 | 1.0 | 9.0 | 0.00 | 0.00 | 0.00 | 30 | 1004.1 |
| 20260504191559 | 70 | 290 | 2.0 | 6.0 | 0.00 | 0.00 | 0.00 | 29 | 1004.1 |
| 20260504190108 | 70 | 106 | 2.0 | 9.0 | 0.00 | 0.00 | 0.00 | 32 | 1004.6 |
| 20260504184558 | 70 | 128 | 1.0 | 8.0 | 0.00 | 0.00 | 0.00 | 32 | 1004.6 |
| 20260504183102 | 70 | 284 | 1.0 | 9.0 | 0.00 | 0.00 | 0.00 | 32 | 1004.6 |
| 20260504181556 | 69 | 210 | 1.0 | 6.0 | 0.00 | 0.00 | 0.00 | 34 | 1005.0 |
| 20260504180136 | 69 | 338 | 1.0 | 6.0 | 0.00 | 0.00 | 0.00 | 36 | 1005.1 |
| 20260504174553 | 68 | 194 | 2.0 | 8.0 | 0.00 | 0.00 | 0.00 | 37 | 1005.4 |
| 20260504173052 | 67 | 258 | 1.0 | 6.0 | 0.00 | 0.00 | 0.00 | 32 | 1005.4 |
| 20260504171553 | 68 | 20 | 0.0 | 7.0 | 0.00 | 0.00 | 0.00 | 32 | 1005.7 |